Borlange, Sweden

6:01 AM CEST on September 20, 2014 (GMT +0200)
Strandbro | Change Station
CLOSE
Current Station
Personal Weather Station
Location: Borlänge, DALARNA
Elevation: 459 ft
Nearby Weather Stations

Elev 459 ft 60.42 °N, 15.44 °E | Updated 41 seconds ago

Mist
Mist
37.0 °F
Feels Like 37 °F
N
0.0
Wind Variable Wind from NW
Gusts 1.6 mph

Today
High -- | Low -- °F
--% Chance of Precip.
Yesterday
High -- | Low -- °F
Precip. -- in
6:36 AM 7:04 PM
Waning Crescent, 15% visible
Pressure 30.01 in
Visibility -9999.0 miles
Clouds
Windchill 37 °F
Dew Point 37 °F
Humidity 99%
Rainfall 0.00 in
Snow Depth Not available.
UV Not available.
Pollen Not available.
Air Quality Not available.
Flu Activity Not available.
METAR ESSD 200350Z AUTO 26002KT 4800 BR NCD 04/04 Q1016

More Conditions Fewer Conditions

Pressure 30.01 in
Visibility -9999.0 miles
Clouds
Windchill 37 °F
Dew Point 37 °F
Humidity 99%
Rainfall 0.00 in
Snow Depth Not available.
UV Not available.
Pollen Not available.
Air Quality Not available.
Flu Activity Not available.
METAR ESSD 200350Z AUTO 26002KT 4800 BR NCD 04/04 Q1016

More Conditions Fewer Conditions

10-Day Weather Forecast

Almanac

Astronomy

Sep. 20, 2014 Rise Set
Actual Time 6:36 AM CEST 7:04 PM CEST
Civil Twilight 5:54 AM CEST 7:46 PM CEST
Nautical Twilight 5:02 AM CEST 8:38 PM CEST
Astronomical Twilight 4:05 AM CEST 9:34 PM CEST
Moon 2:14 AM CEST 5:35 PM CEST
Length of Visible Light 13h 52m
Length of Day
12h 27m
Tomorrow will be 5m 30s shorter.
Waning Crescent, 15% of the Moon is Illuminated
Today
Waning Crescent
Sep 24
New
Oct 1
First Quarter
Oct 8
Full
Oct 15
Last Quarter

Yesterday's Extremes

Country Highs Country Lows

Community

WunderPhotos

Upload Photos

1,754,777 photos uploaded!

WunderBlogs® & News

Nearby

Snow Depth

Not available.

Earthquake Activity

City Distance Mag. Time & Date
No recent earthquake activity has been reported nearby.
Minimum magnitude displayed is 2.5.

Coastal Water Temperatures

Place Temperature
No Stations Reporting

Nearby Weather Stations